createdAt,value
2023-02-20T00:00:53.175Z,57.83
2023-02-20T00:04:01.209Z,52.58
2023-02-20T00:07:06.627Z,48.22
2023-02-20T00:10:12.742Z,47.38
2023-02-20T00:13:17.921Z,52.97
2023-02-20T00:16:23.222Z,45.58
2023-02-20T00:19:30.975Z,42.97
2023-02-20T00:22:36.215Z,36.58
2023-02-20T00:25:41.538Z,50.97
2023-02-20T00:28:47.315Z,44.30
2023-02-20T00:31:56.409Z,44.63
2023-02-20T00:35:05.865Z,45.30
2023-02-20T00:38:12.559Z,43.60
2023-02-20T00:41:18.546Z,44.25
2023-02-20T00:44:24.140Z,39.60
2023-02-20T00:47:29.902Z,46.60
2023-02-20T00:50:37.792Z,46.55
2023-02-20T00:53:43.446Z,47.63
2023-02-20T00:56:48.994Z,45.83
2023-02-20T00:59:54.000Z,46.00
2023-02-20T01:02:59.886Z,50.42
2023-02-20T01:06:07.896Z,44.72
2023-02-20T01:09:13.415Z,48.70
2023-02-20T01:12:20.680Z,44.33
2023-02-20T01:15:26.290Z,48.47
2023-02-20T01:18:31.843Z,48.13
2023-02-20T01:21:40.011Z,48.78
2023-02-20T01:24:45.131Z,47.70
2023-02-20T01:27:53.839Z,46.50
2023-02-20T01:30:59.339Z,46.17
2023-02-20T01:34:05.482Z,41.35
2023-02-20T01:37:15.126Z,41.75
2023-02-20T01:40:22.329Z,42.90
2023-02-20T01:43:27.544Z,43.65
2023-02-20T01:46:48.027Z,42.38
2023-02-20T01:49:55.025Z,38.28
2023-02-20T01:53:04.843Z,35.10
2023-02-20T01:56:12.194Z,40.40
2023-02-20T01:59:18.248Z,38.15
2023-02-20T02:02:23.883Z,43.40
2023-02-20T02:05:30.072Z,42.85
2023-02-20T02:08:38.561Z,46.08
2023-02-20T02:11:43.836Z,39.85
2023-02-20T02:14:49.502Z,38.75
2023-02-20T02:18:22.390Z,38.17
2023-02-20T02:21:48.311Z,38.22
2023-02-20T02:25:16.893Z,43.47
2023-02-20T02:28:37.489Z,50.85
2023-02-20T02:32:06.829Z,35.90
2023-02-20T02:35:28.284Z,38.97
2023-02-20T02:38:38.500Z,40.78
2023-02-20T02:41:47.537Z,42.28
2023-02-20T02:44:58.224Z,39.17
2023-02-20T02:48:05.907Z,37.80
2023-02-20T02:51:14.133Z,33.73
2023-02-20T02:54:26.681Z,38.15
2023-02-20T02:57:32.302Z,39.92
2023-02-20T03:00:39.705Z,40.15
2023-02-20T03:03:47.241Z,40.20
2023-02-20T03:06:54.559Z,34.72
2023-02-20T03:10:05.635Z,35.27
2023-02-20T03:13:15.182Z,33.53
2023-02-20T03:19:28.836Z,36.10
2023-02-20T03:22:36.017Z,33.40
2023-02-20T03:25:48.272Z,32.85
2023-02-20T03:28:56.940Z,30.70
2023-02-20T03:32:19.325Z,35.40
2023-02-20T03:35:39.100Z,29.90
2023-02-20T03:38:58.061Z,33.45
2023-02-20T03:42:19.685Z,36.95
2023-02-20T03:45:30.936Z,28.40
2023-02-20T03:48:38.428Z,26.92
2023-02-20T03:52:01.239Z,31.38
2023-02-20T03:55:16.054Z,29.48
2023-02-20T03:58:26.410Z,30.92
2023-02-20T04:01:32.142Z,33.15
2023-02-20T04:04:40.316Z,27.35
2023-02-20T04:10:53.330Z,31.35
2023-02-20T04:14:02.189Z,31.38
2023-02-20T04:17:10.004Z,29.48
2023-02-20T04:20:16.477Z,33.42
2023-02-20T04:23:31.342Z,30.13
2023-02-20T04:26:37.868Z,29.13
2023-02-20T04:29:45.879Z,31.38
2023-02-20T04:32:51.413Z,36.00
2023-02-20T04:35:58.647Z,33.17
2023-02-20T04:39:04.504Z,29.52
2023-02-20T04:42:11.529Z,33.67
2023-02-20T04:45:21.083Z,31.58
2023-02-20T04:51:31.730Z,29.00
2023-02-20T04:54:37.441Z,29.77
2023-02-20T04:57:43.923Z,31.55
2023-02-20T05:00:51.786Z,31.08
2023-02-20T05:03:57.181Z,30.17
2023-02-20T05:07:02.435Z,33.25
2023-02-20T05:10:08.268Z,32.03
2023-02-20T05:13:13.528Z,31.17
2023-02-20T05:16:21.431Z,31.02
2023-02-20T05:22:29.156Z,26.58
2023-02-20T05:25:34.622Z,30.73
2023-02-20T05:28:40.370Z,26.63
2023-02-20T05:31:48.316Z,25.83
2023-02-20T05:34:53.893Z,27.88
2023-02-20T05:37:59.155Z,29.92
2023-02-20T05:41:04.737Z,26.65
2023-02-20T05:44:09.929Z,32.38
2023-02-20T05:47:18.204Z,27.27
2023-02-20T05:50:23.811Z,28.55
2023-02-20T05:53:30.966Z,31.15
2023-02-20T05:56:36.108Z,26.98
2023-02-20T05:59:41.457Z,29.20
2023-02-20T06:02:49.371Z,31.27
2023-02-20T06:05:56.680Z,27.02
2023-02-20T06:09:01.948Z,24.15
2023-02-20T06:12:07.864Z,31.70
2023-02-20T06:15:13.371Z,24.83
2023-02-20T06:18:21.225Z,29.20
2023-02-20T06:21:27.275Z,25.38
2023-02-20T06:24:32.587Z,23.50
2023-02-20T06:27:38.101Z,22.15
2023-02-20T06:30:43.497Z,29.65
2023-02-20T06:33:51.369Z,29.08
2023-02-20T06:36:56.793Z,27.65
2023-02-20T06:40:02.300Z,29.95
2023-02-20T06:43:08.385Z,28.73
2023-02-20T06:46:14.050Z,31.40
2023-02-20T06:49:22.428Z,31.98
2023-02-20T06:52:28.075Z,25.20
2023-02-20T06:55:33.656Z,29.38
2023-02-20T06:58:39.201Z,27.45
2023-02-20T07:01:45.120Z,27.55
2023-02-20T07:04:53.824Z,28.33
2023-02-20T07:07:58.918Z,25.20
2023-02-20T07:11:04.328Z,30.02
2023-02-20T07:14:09.869Z,27.55
2023-02-20T07:17:15.684Z,27.45
2023-02-20T07:20:23.942Z,28.95
2023-02-20T07:26:35.600Z,28.63
2023-02-20T07:29:41.569Z,25.05
2023-02-20T07:32:47.030Z,24.35
2023-02-20T07:35:54.785Z,25.58
2023-02-20T07:39:01.631Z,27.83
2023-02-20T07:42:06.943Z,30.88
2023-02-20T07:45:33.110Z,24.48
2023-02-20T07:48:38.425Z,25.23
2023-02-20T07:51:46.654Z,27.58
2023-02-20T07:57:58.587Z,28.27
2023-02-20T08:01:04.109Z,26.77
2023-02-20T08:04:09.756Z,25.75
2023-02-20T08:07:17.661Z,29.98
2023-02-20T08:10:25.168Z,24.77
2023-02-20T08:13:30.956Z,22.65
2023-02-20T08:16:37.035Z,27.15
2023-02-20T08:19:42.355Z,28.42
2023-02-20T08:22:51.237Z,30.75
2023-02-20T08:25:56.728Z,29.95
2023-02-20T08:29:02.290Z,26.23
2023-02-20T08:32:08.209Z,29.67
2023-02-20T08:35:13.521Z,33.20
2023-02-20T08:38:32.024Z,27.65
2023-02-20T08:44:44.140Z,34.30
2023-02-20T08:47:49.719Z,32.60
2023-02-20T08:50:55.824Z,31.98
2023-02-20T08:54:04.615Z,27.00
2023-02-20T08:57:10.320Z,34.97
2023-02-20T09:00:18.014Z,28.42
2023-02-20T09:03:23.249Z,28.17
2023-02-20T09:06:29.351Z,33.80
2023-02-20T09:09:37.376Z,35.03
2023-02-20T09:12:42.837Z,33.92
2023-02-20T09:15:48.354Z,34.35
2023-02-20T09:18:57.551Z,37.45
2023-02-20T09:22:03.413Z,37.15
2023-02-20T09:25:11.623Z,41.22
2023-02-20T09:28:18.875Z,37.78
2023-02-20T09:31:24.357Z,37.28
2023-02-20T09:34:29.754Z,40.10
2023-02-20T09:37:34.849Z,35.22
2023-02-20T09:40:43.099Z,34.15
2023-02-20T09:43:50.753Z,34.13
2023-02-20T09:46:56.878Z,32.83
2023-02-20T09:50:03.928Z,35.15
2023-02-20T09:53:10.798Z,34.17
2023-02-20T09:56:21.064Z,36.95
2023-02-20T09:59:28.213Z,33.17
2023-02-20T10:02:35.066Z,33.50
2023-02-20T10:05:40.710Z,33.45
2023-02-20T10:08:46.438Z,31.55
2023-02-20T10:12:09.283Z,32.60
2023-02-20T10:15:21.131Z,31.98
2023-02-20T10:18:30.831Z,32.38
2023-02-20T10:21:43.168Z,30.02
2023-02-20T10:24:54.269Z,26.00
2023-02-20T10:28:04.202Z,30.95
2023-02-20T10:31:12.633Z,30.45
2023-02-20T10:34:19.432Z,33.05
2023-02-20T10:37:29.575Z,32.70
2023-02-20T10:40:43.819Z,28.05
2023-02-20T10:43:56.654Z,28.40
2023-02-20T10:47:03.096Z,27.65
2023-02-20T10:50:11.340Z,28.40
2023-02-20T10:53:22.723Z,33.78
2023-02-20T10:56:29.878Z,30.52
2023-02-20T10:59:42.847Z,31.52
2023-02-20T11:02:50.747Z,34.70
2023-02-20T11:05:57.598Z,29.27
2023-02-20T11:09:03.155Z,29.67
2023-02-20T11:12:09.019Z,24.40
2023-02-20T11:15:17.878Z,28.08
2023-02-20T11:18:26.711Z,28.27
2023-02-20T11:21:40.275Z,31.95
2023-02-20T11:24:46.459Z,32.00
2023-02-20T11:27:54.641Z,29.63
2023-02-20T11:31:05.272Z,32.88
2023-02-20T11:34:18.135Z,27.98
2023-02-20T11:37:23.763Z,28.92
2023-02-20T11:40:30.911Z,31.63
2023-02-20T11:43:37.565Z,28.83
2023-02-20T11:46:47.537Z,32.53
2023-02-20T11:49:53.610Z,29.08
2023-02-20T11:53:00.152Z,29.50
2023-02-20T11:56:14.757Z,28.67
2023-02-20T11:59:29.985Z,24.70
2023-02-20T12:02:38.602Z,27.83
2023-02-20T12:05:44.828Z,27.80
2023-02-20T12:08:53.982Z,32.00
2023-02-20T12:11:59.763Z,28.20
2023-02-20T12:15:05.453Z,32.05
2023-02-20T12:18:20.538Z,36.03
2023-02-20T12:21:35.074Z,31.40
2023-02-20T12:24:46.195Z,26.05
2023-02-20T12:28:01.666Z,29.15
2023-02-20T12:31:17.916Z,30.80
2023-02-20T12:34:42.570Z,31.92
2023-02-20T12:37:52.643Z,28.48
2023-02-20T12:41:09.416Z,27.42
2023-02-20T12:44:28.877Z,32.47
2023-02-20T12:47:35.901Z,27.00
2023-02-20T12:50:49.256Z,27.13
2023-02-20T12:54:04.023Z,27.48
2023-02-20T12:57:16.277Z,29.42
2023-02-20T13:00:26.589Z,26.40
2023-02-20T13:03:38.792Z,30.23
2023-02-20T13:06:48.195Z,28.70
2023-02-20T13:09:58.607Z,27.88
2023-02-20T13:13:04.545Z,29.15
2023-02-20T13:16:13.686Z,28.60
2023-02-20T13:19:22.528Z,27.42
2023-02-20T13:25:43.108Z,23.80
2023-02-20T13:28:48.512Z,27.42
2023-02-20T13:31:54.390Z,29.67
2023-02-20T13:35:34.466Z,32.50
2023-02-20T13:38:40.025Z,25.50
2023-02-20T13:42:02.679Z,29.75
2023-02-20T13:45:23.037Z,28.70
2023-02-20T13:48:47.174Z,32.67
2023-02-20T13:51:52.771Z,29.77
2023-02-20T13:54:58.701Z,30.10
2023-02-20T13:58:14.456Z,31.20
2023-02-20T14:01:20.403Z,29.95
2023-02-20T14:04:28.756Z,34.92
2023-02-20T14:07:37.613Z,35.53
2023-02-20T14:10:47.748Z,28.70
2023-02-20T14:13:53.740Z,30.52
2023-02-20T14:17:07.053Z,32.53
2023-02-20T14:20:23.114Z,33.67
2023-02-20T14:23:29.179Z,34.20
2023-02-20T14:26:35.340Z,33.35
2023-02-20T14:29:41.040Z,32.05
2023-02-20T14:32:47.306Z,28.02
2023-02-20T14:36:00.506Z,27.88
2023-02-20T14:39:20.348Z,32.80
2023-02-20T14:42:27.235Z,35.33
2023-02-20T14:45:32.911Z,30.70
2023-02-20T14:48:41.331Z,32.97
2023-02-20T14:51:49.696Z,33.55
2023-02-20T14:55:04.952Z,34.47
2023-02-20T14:58:10.147Z,31.95
2023-02-20T15:01:20.383Z,35.90
2023-02-20T15:04:26.468Z,34.88
2023-02-20T15:07:35.017Z,29.95
2023-02-20T15:10:41.271Z,31.23
2023-02-20T15:13:48.553Z,35.67
2023-02-20T15:17:08.247Z,33.83
2023-02-20T15:20:20.797Z,31.77
2023-02-20T15:23:31.974Z,34.85
2023-02-20T15:26:39.130Z,37.80
2023-02-20T15:29:44.626Z,33.72
2023-02-20T15:32:55.975Z,38.78
2023-02-20T15:36:01.989Z,39.63
2023-02-20T15:39:13.285Z,37.70
2023-02-20T15:42:19.974Z,36.38
2023-02-20T15:45:25.771Z,38.80
2023-02-20T15:48:30.912Z,36.17
2023-02-20T15:51:37.966Z,34.17
2023-02-20T15:54:46.954Z,41.53
2023-02-20T15:57:55.084Z,37.72
2023-02-20T16:04:05.684Z,38.63
2023-02-20T16:07:11.048Z,43.22
2023-02-20T16:10:19.655Z,41.55
2023-02-20T16:13:28.045Z,37.78
2023-02-20T16:16:35.540Z,40.40
2023-02-20T16:19:42.930Z,41.45
2023-02-20T16:22:48.361Z,48.03
2023-02-20T16:25:56.267Z,41.25
2023-02-20T16:29:02.947Z,41.58
2023-02-20T16:32:27.331Z,40.50
2023-02-20T16:35:32.504Z,42.90
2023-02-20T16:38:38.041Z,40.17
2023-02-20T16:41:46.071Z,42.80
2023-02-20T16:47:57.882Z,47.45
2023-02-20T16:51:06.513Z,45.95
2023-02-20T16:54:13.515Z,48.83
2023-02-20T16:57:23.801Z,44.35
2023-02-20T17:00:30.315Z,51.70
2023-02-20T17:03:35.816Z,52.97
2023-02-20T17:06:41.501Z,45.10
2023-02-20T17:09:46.977Z,56.97
2023-02-20T17:12:55.373Z,49.90
2023-02-20T17:16:00.980Z,51.58
2023-02-20T17:19:06.433Z,49.80
2023-02-20T17:22:12.074Z,42.83
2023-02-20T17:25:18.555Z,49.45
2023-02-20T17:28:26.349Z,53.38
2023-02-20T17:31:31.885Z,50.53
2023-02-20T17:34:37.348Z,48.95
2023-02-20T17:37:43.102Z,52.58
2023-02-20T17:40:48.703Z,54.85
2023-02-20T17:43:56.644Z,51.45
2023-02-20T17:47:02.864Z,56.13
2023-02-20T17:50:09.181Z,56.10
2023-02-20T17:53:15.450Z,53.95
2023-02-20T17:56:20.751Z,49.25
2023-02-20T17:59:30.637Z,60.10
2023-02-20T18:02:35.977Z,54.38
2023-02-20T18:05:41.363Z,51.67
2023-02-20T18:08:46.538Z,55.58
2023-02-20T18:11:52.203Z,56.47
2023-02-20T18:15:00.271Z,52.08
2023-02-20T18:18:06.313Z,61.38
2023-02-20T18:21:18.693Z,54.25
2023-02-20T18:24:25.026Z,54.75
2023-02-20T18:27:30.253Z,57.25
2023-02-20T18:30:38.835Z,59.40
2023-02-20T18:36:49.409Z,54.55
2023-02-20T18:39:54.800Z,56.40
2023-02-20T18:43:00.365Z,62.40
2023-02-20T18:46:08.608Z,59.15
2023-02-20T18:49:14.438Z,63.65
2023-02-20T18:52:23.115Z,52.17
2023-02-20T18:55:28.339Z,58.55
2023-02-20T18:58:33.953Z,59.58
2023-02-20T19:01:43.737Z,59.92
2023-02-20T19:04:52.027Z,63.15
2023-02-20T19:07:57.556Z,60.90
2023-02-20T19:11:03.099Z,55.63
2023-02-20T19:14:08.592Z,55.42
2023-02-20T19:17:18.197Z,57.90
2023-02-20T19:20:28.357Z,52.20
2023-02-20T19:23:34.512Z,56.20
2023-02-20T19:26:40.137Z,58.80
2023-02-20T19:29:45.950Z,55.50
2023-02-20T19:32:54.029Z,61.35
2023-02-20T19:35:59.049Z,59.90
2023-02-20T19:39:04.687Z,57.17
2023-02-20T19:42:10.099Z,60.40
2023-02-20T19:45:15.931Z,59.20
2023-02-20T19:48:25.472Z,61.45
2023-02-20T19:51:32.606Z,58.75
2023-02-20T19:54:37.861Z,60.70
2023-02-20T19:57:43.433Z,62.97
2023-02-20T20:00:48.426Z,63.95
2023-02-20T20:03:56.560Z,66.32
2023-02-20T20:07:02.795Z,71.93
2023-02-20T20:10:09.084Z,59.67
2023-02-20T20:13:14.340Z,68.43
2023-02-20T20:16:20.116Z,63.45
2023-02-20T20:19:28.036Z,65.95
2023-02-20T20:22:34.049Z,66.22
2023-02-20T20:25:41.285Z,65.80
2023-02-20T20:28:48.105Z,62.65
2023-02-20T20:31:53.641Z,65.95
2023-02-20T20:35:01.737Z,64.55
2023-02-20T20:38:08.411Z,66.38
2023-02-20T20:41:14.855Z,65.68
2023-02-20T20:44:23.958Z,60.30
2023-02-20T20:47:30.248Z,72.80
2023-02-20T20:50:38.048Z,72.45
2023-02-20T20:53:43.542Z,66.20
2023-02-20T20:56:49.191Z,70.35
2023-02-20T20:59:56.154Z,70.32
2023-02-20T21:03:01.717Z,71.10
2023-02-20T21:06:09.696Z,67.85
2023-02-20T21:09:15.353Z,69.85
2023-02-20T21:12:21.029Z,64.53
2023-02-20T21:15:26.221Z,67.05
2023-02-20T21:18:31.926Z,70.20
2023-02-20T21:21:39.814Z,71.43
2023-02-20T21:24:44.896Z,73.70
2023-02-20T21:27:50.670Z,64.22
2023-02-20T21:30:56.162Z,65.32
2023-02-20T21:34:01.766Z,69.80
2023-02-20T21:37:10.201Z,64.88
2023-02-20T21:40:15.610Z,66.07
2023-02-20T21:43:33.234Z,63.83
2023-02-20T21:46:38.574Z,72.40
2023-02-20T21:49:45.977Z,65.20
2023-02-20T21:52:54.235Z,42.03
2023-02-20T21:59:01.994Z,62.45
2023-02-20T22:02:04.970Z,63.50
2023-02-20T22:05:08.178Z,64.35
2023-02-20T22:08:28.841Z,58.72
2023-02-20T22:11:47.296Z,65.28
2023-02-20T22:15:05.175Z,67.82
2023-02-20T22:21:41.134Z,40.38
2023-02-20T22:25:01.506Z,65.18
2023-02-20T22:28:21.504Z,68.38
2023-02-20T22:31:38.895Z,66.25
2023-02-20T22:35:10.610Z,71.45
2023-02-20T22:38:29.190Z,68.20
2023-02-20T22:41:49.736Z,63.70
2023-02-20T22:45:07.083Z,64.30
2023-02-20T22:48:24.893Z,66.70
2023-02-20T22:51:42.888Z,71.80
2023-02-20T22:58:25.988Z,77.68
2023-02-20T23:01:43.652Z,74.72
2023-02-20T23:05:01.606Z,69.70
2023-02-20T23:08:21.112Z,69.05
2023-02-20T23:14:59.477Z,66.88
2023-02-20T23:18:16.881Z,70.93
2023-02-20T23:21:35.045Z,69.68
2023-02-20T23:28:09.858Z,69.38
2023-02-20T23:34:47.588Z,71.60
2023-02-20T23:38:05.327Z,76.82
2023-02-20T23:41:23.010Z,74.68
2023-02-20T23:44:40.464Z,77.38
2023-02-20T23:47:58.432Z,68.60
2023-02-20T23:54:36.994Z,71.93
2023-02-20T23:57:54.740Z,66.65
